createdAt,value
2018-11-20T00:03:52.686Z,10.90
2018-11-20T00:06:41.743Z,10.07
2018-11-20T00:09:31.841Z,9.93
2018-11-20T00:12:05.409Z,10.37
2018-11-20T00:14:52.903Z,10.73
2018-11-20T00:17:21.829Z,11.40
2018-11-20T00:20:14.289Z,10.70
2018-11-20T00:23:08.903Z,10.50
2018-11-20T00:26:10.694Z,11.00
2018-11-20T00:29:16.418Z,11.10
2018-11-20T00:34:17.608Z,11.13
2018-11-20T00:36:54.349Z,11.60
2018-11-20T00:39:30.132Z,11.10
2018-11-20T00:44:56.710Z,11.20
2018-11-20T00:47:46.440Z,12.10
2018-11-20T00:50:40.347Z,11.33
2018-11-20T00:56:53.185Z,11.60
2018-11-20T00:59:58.040Z,11.17
2018-11-20T01:02:49.074Z,11.67
2018-11-20T01:05:35.453Z,10.97
2018-11-20T01:08:26.916Z,11.50
2018-11-20T01:11:09.682Z,12.07
2018-11-20T01:13:46.387Z,11.27
2018-11-20T01:16:25.811Z,12.10
2018-11-20T01:21:45.151Z,11.83
2018-11-20T01:24:33.253Z,11.63
2018-11-20T01:27:37.034Z,12.53
2018-11-20T01:30:25.904Z,10.70
2018-11-20T01:33:17.681Z,12.97
2018-11-20T01:36:04.375Z,12.20
2018-11-20T01:39:02.412Z,11.03
2018-11-20T01:41:40.892Z,12.23
2018-11-20T01:44:30.989Z,12.43
2018-11-20T01:49:52.780Z,12.13
2018-11-20T01:52:46.256Z,12.60
2018-11-20T01:55:28.439Z,12.23
2018-11-20T01:58:11.371Z,12.27
2018-11-20T02:01:01.272Z,12.63
2018-11-20T02:06:23.577Z,12.10
2018-11-20T02:09:15.895Z,12.83
2018-11-20T02:12:09.279Z,12.77
2018-11-20T02:14:57.423Z,12.03
2018-11-20T02:17:26.152Z,13.53
2018-11-20T02:20:18.187Z,13.83
2018-11-20T02:28:14.372Z,13.40
2018-11-20T02:33:24.078Z,13.97
2018-11-20T02:35:56.484Z,12.97
2018-11-20T02:38:45.536Z,12.97
2018-11-20T02:41:42.271Z,12.80
2018-11-20T02:44:22.615Z,13.90
2018-11-20T02:47:17.769Z,13.40
2018-11-20T02:50:08.239Z,13.80
2018-11-20T02:53:01.934Z,13.53
2018-11-20T02:55:31.292Z,13.70
2018-11-20T02:58:22.617Z,12.43
2018-11-20T03:01:12.798Z,13.00
2018-11-20T03:04:05.297Z,12.83
2018-11-20T03:06:55.945Z,13.00
2018-11-20T03:09:44.185Z,13.60
2018-11-20T03:12:31.700Z,12.43
2018-11-20T03:15:22.939Z,13.13
2018-11-20T03:18:20.480Z,12.57
2018-11-20T03:21:12.572Z,13.47
2018-11-20T03:24:16.396Z,13.17
2018-11-20T03:30:49.177Z,13.60
2018-11-20T03:36:14.215Z,13.50
2018-11-20T03:39:18.131Z,12.73
2018-11-20T03:41:51.564Z,12.47
2018-11-20T03:44:30.608Z,11.93
2018-11-20T03:47:10.854Z,11.93
2018-11-20T03:50:08.771Z,12.90
2018-11-20T03:52:54.133Z,12.17
2018-11-20T03:55:44.296Z,11.80
2018-11-20T03:58:32.503Z,11.50
2018-11-20T04:01:22.871Z,11.73
2018-11-20T04:04:03.867Z,12.40
2018-11-20T04:06:46.352Z,12.73
2018-11-20T04:09:50.563Z,13.20
2018-11-20T04:15:08.456Z,12.30
2018-11-20T04:20:35.984Z,12.37
2018-11-20T04:25:59.224Z,11.87
2018-11-20T04:28:40.434Z,12.37
2018-11-20T04:32:34.336Z,12.10
2018-11-20T04:35:24.094Z,12.90
2018-11-20T04:38:15.474Z,11.53
2018-11-20T04:40:44.958Z,12.53
2018-11-20T04:43:30.365Z,12.13
2018-11-20T04:46:30.943Z,13.10
2018-11-20T04:52:08.846Z,13.27
2018-11-20T04:54:52.515Z,12.90
2018-11-20T04:57:50.176Z,13.00
2018-11-20T05:00:39.464Z,13.33
2018-11-20T05:03:40.101Z,12.80
2018-11-20T05:06:21.103Z,13.70
2018-11-20T05:09:20.536Z,13.90
2018-11-20T05:12:03.121Z,12.57
2018-11-20T05:14:55.382Z,13.17
2018-11-20T05:17:33.142Z,12.90
2018-11-20T05:20:38.424Z,13.80
2018-11-20T05:23:36.213Z,13.17
2018-11-20T05:26:27.848Z,12.20
2018-11-20T05:29:16.729Z,14.37
2018-11-20T05:32:21.729Z,13.60
2018-11-20T05:35:03.042Z,13.07
2018-11-20T05:38:12.476Z,12.57
2018-11-20T05:41:01.074Z,13.70
2018-11-20T05:43:54.015Z,13.60
2018-11-20T05:47:01.368Z,13.60
2018-11-20T05:49:50.240Z,13.20
2018-11-20T05:52:41.611Z,13.77
2018-11-20T05:55:37.066Z,13.47
2018-11-20T05:58:37.567Z,14.57
2018-11-20T06:01:19.390Z,13.00
2018-11-20T06:04:05.132Z,14.50
2018-11-20T06:06:52.751Z,14.03
2018-11-20T06:09:41.808Z,13.80
2018-11-20T06:12:29.772Z,13.47
2018-11-20T06:15:20.554Z,14.20
2018-11-20T06:17:53.227Z,14.07
2018-11-20T06:20:33.192Z,14.43
2018-11-20T06:23:23.691Z,14.77
2018-11-20T06:26:11.217Z,14.73
2018-11-20T06:29:15.229Z,13.73
2018-11-20T06:31:55.811Z,14.50
2018-11-20T06:34:43.238Z,13.97
2018-11-20T06:37:35.324Z,14.73
2018-11-20T06:40:25.043Z,15.60
2018-11-20T06:42:54.223Z,15.37
2018-11-20T06:45:44.954Z,14.50
2018-11-20T06:48:32.363Z,14.50
2018-11-20T06:51:26.516Z,15.07
2018-11-20T06:54:17.113Z,14.20
2018-11-20T06:59:33.353Z,14.37
2018-11-20T07:02:24.467Z,13.43
2018-11-20T07:05:15.339Z,14.50
2018-11-20T07:08:05.668Z,14.33
2018-11-20T07:10:54.671Z,14.27
2018-11-20T07:14:07.287Z,15.60
2018-11-20T07:17:11.321Z,14.00
2018-11-20T07:20:00.931Z,14.03
2018-11-20T07:22:44.594Z,14.00
2018-11-20T07:25:51.027Z,14.77
2018-11-20T07:28:58.728Z,14.03
2018-11-20T07:34:23.013Z,13.97
2018-11-20T07:37:18.700Z,13.77
2018-11-20T07:40:08.963Z,14.37
2018-11-20T07:42:43.422Z,14.83
2018-11-20T07:45:27.886Z,14.87
2018-11-20T07:48:20.390Z,13.60
2018-11-20T07:51:12.040Z,14.40
2018-11-20T07:54:13.136Z,14.30
2018-11-20T07:56:46.411Z,14.03
2018-11-20T07:59:32.016Z,14.97
2018-11-20T08:04:56.261Z,15.27
2018-11-20T08:07:44.128Z,14.90
2018-11-20T08:10:45.211Z,14.40
2018-11-20T08:13:27.296Z,15.50
2018-11-20T08:16:21.445Z,14.70
2018-11-20T08:21:48.260Z,15.13
2018-11-20T08:24:35.499Z,13.83
2018-11-20T08:27:25.414Z,15.13
2018-11-20T08:29:54.932Z,14.50
2018-11-20T08:32:42.736Z,15.50
2018-11-20T08:35:25.644Z,15.07
2018-11-20T08:38:17.664Z,14.87
2018-11-20T08:41:09.563Z,14.43
2018-11-20T08:46:16.186Z,13.97
2018-11-20T08:51:32.396Z,14.97
2018-11-20T08:54:18.795Z,14.33
2018-11-20T08:56:52.749Z,15.90
2018-11-20T08:59:42.147Z,14.80
2018-11-20T09:02:37.003Z,15.37
2018-11-20T09:05:31.342Z,15.30
2018-11-20T09:10:54.599Z,14.70
2018-11-20T09:14:01.955Z,14.07
2018-11-20T09:16:59.873Z,14.80
2018-11-20T09:19:51.710Z,14.50
2018-11-20T09:22:52.428Z,15.13
2018-11-20T09:25:29.223Z,15.37
2018-11-20T09:28:23.012Z,15.73
2018-11-20T09:31:14.737Z,15.33
2018-11-20T09:36:25.257Z,15.83
2018-11-20T09:39:17.276Z,14.53
2018-11-20T09:42:07.507Z,15.43
2018-11-20T09:44:55.394Z,15.47
2018-11-20T09:47:45.455Z,14.67
2018-11-20T09:50:17.631Z,15.23
2018-11-20T09:52:54.192Z,13.93
2018-11-20T09:55:44.574Z,15.03
2018-11-20T09:58:33.494Z,14.80
2018-11-20T10:01:23.762Z,14.37
2018-11-20T10:06:47.979Z,14.87
2018-11-20T10:09:22.102Z,14.27
2018-11-20T10:12:25.070Z,15.30
2018-11-20T10:15:04.836Z,14.60
2018-11-20T10:18:05.328Z,15.40
2018-11-20T10:21:00.615Z,15.50
2018-11-20T10:23:51.214Z,14.20
2018-11-20T10:26:27.814Z,15.23
2018-11-20T10:28:55.751Z,15.37
2018-11-20T10:31:43.792Z,15.00
2018-11-20T10:34:40.399Z,15.50
2018-11-20T10:37:22.131Z,14.67
2018-11-20T10:40:15.503Z,16.17
2018-11-20T10:42:52.394Z,13.70
2018-11-20T10:45:39.198Z,14.90
2018-11-20T10:48:31.419Z,15.33
2018-11-20T10:53:55.668Z,14.70
2018-11-20T10:56:43.312Z,15.03
2018-11-20T10:59:35.203Z,14.23
2018-11-20T11:04:55.028Z,15.37
2018-11-20T11:07:46.707Z,14.33
2018-11-20T11:13:07.817Z,14.23
2018-11-20T11:16:05.272Z,14.10
2018-11-20T11:21:25.119Z,14.40
2018-11-20T11:28:30.456Z,15.57
2018-11-20T11:31:16.015Z,14.87
2018-11-20T11:34:14.998Z,14.50
2018-11-20T11:37:13.713Z,13.87
2018-11-20T11:40:06.758Z,14.30
2018-11-20T11:42:53.636Z,14.63
2018-11-20T11:45:43.441Z,13.70
2018-11-20T11:48:29.039Z,14.67
2018-11-20T11:51:09.983Z,14.57
2018-11-20T11:53:43.971Z,13.90
2018-11-20T11:56:24.345Z,14.23
2018-11-20T11:59:10.378Z,14.30
2018-11-20T12:04:39.277Z,13.43
2018-11-20T12:07:24.356Z,15.13
2018-11-20T12:10:15.207Z,13.47
2018-11-20T12:13:01.295Z,12.93
2018-11-20T12:16:00.046Z,13.23
2018-11-20T12:18:45.882Z,13.90
2018-11-20T12:21:36.758Z,12.90
2018-11-20T12:24:27.304Z,13.07
2018-11-20T12:27:04.435Z,13.53
2018-11-20T12:29:40.092Z,13.57
2018-11-20T12:32:26.643Z,12.87
2018-11-20T12:35:33.077Z,12.13
2018-11-20T12:38:08.673Z,12.23
2018-11-20T12:40:55.918Z,11.00
2018-11-20T12:43:35.636Z,11.43
2018-11-20T12:46:19.648Z,11.50
2018-11-20T12:49:05.357Z,11.10
2018-11-20T12:51:51.302Z,11.43
2018-11-20T12:54:41.098Z,10.20
2018-11-20T12:57:40.298Z,10.47
2018-11-20T13:00:35.112Z,10.37
2018-11-20T13:03:30.832Z,10.60
2018-11-20T13:06:35.371Z,10.13
2018-11-20T13:09:15.887Z,11.50
2018-11-20T13:11:52.867Z,10.77
2018-11-20T13:14:46.117Z,11.07
2018-11-20T13:17:33.665Z,10.20
2018-11-20T13:20:29.670Z,10.73
2018-11-20T13:23:25.569Z,10.10
2018-11-20T13:26:08.953Z,10.83
2018-11-20T13:29:11.251Z,10.87
2018-11-20T13:32:10.101Z,9.67
2018-11-20T13:34:57.701Z,10.50
2018-11-20T13:37:35.625Z,10.10
2018-11-20T13:40:14.640Z,10.33
2018-11-20T13:43:15.832Z,10.00
2018-11-20T13:46:01.988Z,10.20
2018-11-20T13:48:40.815Z,10.27
2018-11-20T13:51:27.510Z,10.07
2018-11-20T13:54:17.404Z,10.90
2018-11-20T13:57:16.546Z,9.67
2018-11-20T14:00:01.381Z,11.23
2018-11-20T14:02:39.415Z,10.73
2018-11-20T14:05:44.415Z,10.60
2018-11-20T14:08:23.138Z,10.77
2018-11-20T14:11:10.111Z,10.83
2018-11-20T14:13:48.599Z,10.30
2018-11-20T14:16:34.123Z,11.17
2018-11-20T14:19:20.099Z,11.27
2018-11-20T14:22:06.408Z,11.83
2018-11-20T14:25:05.882Z,11.40
2018-11-20T14:27:57.212Z,12.17
2018-11-20T14:30:45.901Z,11.30
2018-11-20T14:33:45.359Z,10.17
2018-11-20T14:36:51.607Z,12.60
2018-11-20T14:39:48.058Z,12.33
2018-11-20T14:42:35.002Z,12.03
2018-11-20T14:45:25.060Z,12.27
2018-11-20T14:48:14.619Z,12.10
2018-11-20T14:51:04.528Z,13.17
2018-11-20T14:53:47.808Z,12.90
2018-11-20T14:56:22.184Z,13.00
2018-11-20T14:59:15.282Z,13.17
2018-11-20T15:02:01.469Z,13.40
2018-11-20T15:04:49.887Z,13.07
2018-11-20T15:07:45.186Z,14.20
2018-11-20T15:10:20.233Z,13.93
2018-11-20T15:13:07.417Z,14.40
2018-11-20T15:15:53.472Z,13.77
2018-11-20T15:18:47.080Z,13.60
2018-11-20T15:21:52.093Z,14.37
2018-11-20T15:24:48.178Z,14.70
2018-11-20T15:27:34.210Z,14.33
2018-11-20T15:30:30.720Z,14.00
2018-11-20T15:33:09.061Z,13.63
2018-11-20T15:35:59.131Z,14.37
2018-11-20T15:38:44.837Z,13.57
2018-11-20T15:41:31.994Z,14.20
2018-11-20T15:44:28.789Z,13.83
2018-11-20T15:47:06.846Z,14.47
2018-11-20T15:49:53.019Z,14.60
2018-11-20T15:52:39.654Z,14.10
2018-11-20T15:55:29.512Z,14.37
2018-11-20T15:58:22.838Z,14.47
2018-11-20T16:01:23.198Z,14.23
2018-11-20T16:04:05.210Z,14.43
2018-11-20T16:06:51.045Z,14.13
2018-11-20T16:09:36.743Z,13.73
2018-11-20T16:12:24.089Z,14.47
2018-11-20T16:15:13.920Z,16.03
2018-11-20T16:17:58.785Z,14.57
2018-11-20T16:20:56.058Z,14.30
2018-11-20T16:23:55.881Z,15.00
2018-11-20T16:26:58.244Z,15.03
2018-11-20T16:29:43.672Z,14.60
2018-11-20T16:32:43.231Z,15.07
2018-11-20T16:35:30.557Z,14.43
2018-11-20T16:38:33.188Z,14.07
2018-11-20T16:41:19.199Z,14.20
2018-11-20T16:44:12.301Z,14.73
2018-11-20T16:46:57.950Z,14.40
2018-11-20T16:49:43.689Z,15.10
2018-11-20T16:52:33.596Z,14.50
2018-11-20T16:55:19.570Z,14.50
2018-11-20T16:58:08.218Z,14.67
2018-11-20T17:00:55.124Z,14.17
2018-11-20T17:03:42.197Z,14.53
2018-11-20T17:06:35.564Z,15.47
2018-11-20T17:09:29.558Z,16.17
2018-11-20T17:12:05.838Z,14.30
2018-11-20T17:14:51.811Z,15.87
2018-11-20T17:17:38.459Z,14.00
2018-11-20T17:20:27.496Z,16.27
2018-11-20T17:23:29.690Z,15.07
2018-11-20T17:26:13.060Z,15.80
2018-11-20T17:28:58.466Z,14.47
2018-11-20T17:31:40.199Z,14.80
2018-11-20T17:34:45.527Z,14.97
2018-11-20T17:37:44.795Z,21.77
2018-11-20T17:40:34.378Z,14.63
2018-11-20T17:43:10.775Z,29.87
2018-11-20T17:45:56.889Z,17.23
2018-11-20T17:48:42.929Z,16.40
2018-11-20T17:51:28.687Z,15.77
2018-11-20T17:54:22.366Z,16.23
2018-11-20T17:57:08.403Z,14.13
2018-11-20T17:59:43.094Z,14.27
2018-11-20T18:02:33.070Z,18.23
2018-11-20T18:05:18.776Z,17.47
2018-11-20T18:08:10.146Z,14.87
2018-11-20T18:10:53.415Z,15.10
2018-11-20T18:13:37.722Z,14.77
2018-11-20T18:16:39.806Z,14.87
2018-11-20T18:19:25.351Z,14.30
2018-11-20T18:22:24.447Z,13.73
2018-11-20T18:25:10.590Z,14.53
2018-11-20T18:27:57.447Z,14.33
2018-11-20T18:30:47.482Z,17.20
2018-11-20T18:33:29.802Z,15.03
2018-11-20T18:36:16.148Z,14.90
2018-11-20T18:39:03.500Z,14.70
2018-11-20T18:41:50.137Z,14.03
2018-11-20T18:44:37.061Z,14.20
2018-11-20T18:47:23.174Z,13.37
2018-11-20T18:50:10.427Z,15.53
2018-11-20T18:52:53.467Z,14.97
2018-11-20T18:55:49.549Z,14.90
2018-11-20T18:58:35.625Z,14.70
2018-11-20T19:01:17.763Z,18.13
2018-11-20T19:04:03.448Z,15.43
2018-11-20T19:06:43.995Z,15.10
2018-11-20T19:09:29.726Z,14.53
2018-11-20T19:12:28.221Z,17.23
2018-11-20T19:15:14.180Z,24.37
2018-11-20T19:18:00.429Z,14.07
2018-11-20T19:20:46.201Z,13.87
2018-11-20T19:23:32.014Z,16.33
2018-11-20T19:26:18.229Z,13.97
2018-11-20T19:29:08.073Z,17.90
2018-11-20T19:32:10.573Z,13.57
2018-11-20T19:35:06.852Z,16.50
2018-11-20T19:37:52.396Z,21.40
2018-11-20T19:40:46.566Z,27.20
2018-11-20T19:43:32.494Z,15.03
2018-11-20T19:46:37.797Z,14.77
2018-11-20T19:49:27.390Z,13.43
2018-11-20T19:52:08.109Z,14.00
2018-11-20T19:54:58.010Z,14.03
2018-11-20T19:58:03.177Z,13.63
2018-11-20T20:00:45.215Z,14.13
2018-11-20T20:03:31.193Z,13.80
2018-11-20T20:06:17.408Z,13.63
2018-11-20T20:09:10.551Z,14.03
2018-11-20T20:11:56.729Z,13.27
2018-11-20T20:14:31.586Z,13.60
2018-11-20T20:17:27.850Z,13.53
2018-11-20T20:20:11.621Z,13.57
2018-11-20T20:22:57.153Z,12.80
2018-11-20T20:25:50.757Z,13.53
2018-11-20T20:28:37.408Z,13.20
2018-11-20T20:31:32.502Z,13.90
2018-11-20T20:34:31.961Z,13.90
2018-11-20T20:37:17.934Z,13.60
2018-11-20T20:40:12.811Z,13.13
2018-11-20T20:42:52.642Z,13.97
2018-11-20T20:45:39.611Z,13.20
2018-11-20T20:48:38.890Z,12.87
2018-11-20T20:51:24.642Z,13.33
2018-11-20T20:54:12.311Z,12.87
2018-11-20T20:56:45.341Z,13.60
2018-11-20T20:59:35.031Z,13.67
2018-11-20T21:02:13.741Z,12.97
2018-11-20T21:05:06.789Z,13.53
2018-11-20T21:07:57.513Z,13.30
2018-11-20T21:10:59.761Z,14.17
2018-11-20T21:13:49.792Z,13.83
2018-11-20T21:16:51.714Z,14.17
2018-11-20T21:19:52.828Z,15.23
2018-11-20T21:22:39.476Z,15.07
2018-11-20T21:25:26.957Z,13.67
2018-11-20T21:28:19.866Z,14.27
2018-11-20T21:31:02.963Z,13.73
2018-11-20T21:33:44.386Z,15.03
2018-11-20T21:36:28.674Z,13.67
2018-11-20T21:39:29.229Z,14.43
2018-11-20T21:42:17.431Z,14.43
2018-11-20T21:45:17.103Z,14.20
2018-11-20T21:48:09.902Z,14.30
2018-11-20T21:50:57.142Z,13.13
2018-11-20T21:53:43.285Z,13.47
2018-11-20T21:56:26.913Z,12.57
2018-11-20T21:59:15.267Z,14.27
2018-11-20T22:02:14.938Z,13.37
2018-11-20T22:04:53.999Z,13.07
2018-11-20T22:07:40.912Z,13.40
2018-11-20T22:10:27.145Z,14.60
2018-11-20T22:13:16.918Z,14.83
2018-11-20T22:16:02.366Z,13.23
2018-11-20T22:18:48.238Z,15.00
2018-11-20T22:21:39.105Z,14.73
2018-11-20T22:24:28.453Z,14.43
2018-11-20T22:27:11.355Z,15.17
2018-11-20T22:29:58.490Z,14.00
2018-11-20T22:32:44.126Z,16.43
2018-11-20T22:35:33.984Z,15.70
2018-11-20T22:38:29.707Z,15.40
2018-11-20T22:41:19.425Z,16.03
2018-11-20T22:44:08.987Z,15.13
2018-11-20T22:46:51.543Z,16.33
2018-11-20T22:49:32.157Z,16.63
2018-11-20T22:52:16.181Z,15.23
2018-11-20T22:55:09.014Z,15.13
2018-11-20T22:58:08.994Z,15.20
2018-11-20T23:00:54.204Z,15.43
2018-11-20T23:03:59.485Z,13.93
2018-11-20T23:06:45.268Z,14.57
2018-11-20T23:09:12.864Z,15.10
2018-11-20T23:11:40.233Z,15.37
2018-11-20T23:14:07.767Z,15.37
2018-11-20T23:16:35.021Z,16.03
2018-11-20T23:19:02.246Z,16.03
2018-11-20T23:21:29.712Z,14.50
2018-11-20T23:23:56.954Z,14.87
2018-11-20T23:26:24.487Z,15.37
2018-11-20T23:28:51.998Z,15.83
2018-11-20T23:31:20.164Z,15.90
2018-11-20T23:33:48.237Z,15.83
2018-11-20T23:36:15.792Z,15.33
2018-11-20T23:38:43.854Z,17.33
2018-11-20T23:41:11.495Z,17.63
2018-11-20T23:43:38.753Z,15.47
2018-11-20T23:46:06.776Z,15.77
2018-11-20T23:48:34.126Z,15.40
2018-11-20T23:51:01.510Z,15.90
2018-11-20T23:53:29.400Z,15.80
2018-11-20T23:55:56.707Z,17.23
2018-11-20T23:58:23.938Z,16.00
